sensor_id;sensor_type;location;lat;lon;timestamp;P1;P2;P0
69120;PMS5003;56228;43.550;5.030;2022-11-15T08:13:52;5.00;5.00;4.00
69120;PMS5003;56228;43.550;5.030;2022-11-15T08:16:18;4.40;4.40;3.20
69120;PMS5003;56228;43.550;5.030;2022-11-15T08:18:44;6.00;6.00;5.50
69120;PMS5003;56228;43.550;5.030;2022-11-15T08:21:10;4.00;4.00;3.25
69120;PMS5003;56228;43.550;5.030;2022-11-15T08:23:42;5.60;5.60;4.00
69120;PMS5003;56228;43.550;5.030;2022-11-15T08:26:08;4.00;4.00;3.25
69120;PMS5003;56228;43.550;5.030;2022-11-15T08:28:33;5.50;5.50;5.00
69120;PMS5003;56228;43.550;5.030;2022-11-15T08:30:59;4.00;4.00;4.00
69120;PMS5003;56228;43.550;5.030;2022-11-15T08:33:25;5.00;5.00;4.00
69120;PMS5003;56228;43.550;5.030;2022-11-15T08:35:51;4.00;4.00;3.00
69120;PMS5003;56228;43.550;5.030;2022-11-15T08:38:16;4.25;4.25;3.50
69120;PMS5003;56228;43.550;5.030;2022-11-15T08:40:42;6.50;6.50;5.00
69120;PMS5003;56228;43.550;5.030;2022-11-15T08:43:07;6.00;6.00;6.00
69120;PMS5003;56228;43.550;5.030;2022-11-15T08:45:34;2.25;2.25;1.25
69120;PMS5003;56228;43.550;5.030;2022-11-15T08:48:00;1.00;1.00;1.00
69120;PMS5003;56228;43.550;5.030;2022-11-15T08:50:27;5.20;5.20;3.20
69120;PMS5003;56228;43.550;5.030;2022-11-15T08:52:53;4.50;4.50;3.50
69120;PMS5003;56228;43.550;5.030;2022-11-15T08:55:18;5.00;5.00;4.00
69120;PMS5003;56228;43.550;5.030;2022-11-15T08:57:44;5.25;5.25;4.50
69120;PMS5003;56228;43.550;5.030;2022-11-15T09:00:09;6.00;6.00;4.25
69120;PMS5003;56228;43.550;5.030;2022-11-15T09:02:37;6.00;6.00;4.80
69120;PMS5003;56228;43.550;5.030;2022-11-15T09:05:03;6.80;6.80;5.60
69120;PMS5003;56228;43.550;5.030;2022-11-15T09:07:29;4.00;4.00;3.00
69120;PMS5003;56228;43.550;5.030;2022-11-15T09:09:55;6.00;6.00;4.50
69120;PMS5003;56228;43.550;5.030;2022-11-15T09:12:21;6.00;6.00;4.00
69120;PMS5003;56228;43.550;5.030;2022-11-15T09:14:46;4.50;4.50;4.00
69120;PMS5003;56228;43.550;5.030;2022-11-15T09:17:12;7.50;7.50;5.50
69120;PMS5003;56228;43.550;5.030;2022-11-15T09:19:37;4.00;4.00;3.75
69120;PMS5003;56228;43.550;5.030;2022-11-15T09:22:05;4.00;4.00;3.00
69120;PMS5003;56228;43.550;5.030;2022-11-15T09:24:31;4.60;4.60;4.60
69120;PMS5003;56228;43.550;5.030;2022-11-15T09:26:57;7.00;7.00;6.00
69120;PMS5003;56228;43.550;5.030;2022-11-15T09:29:22;3.75;3.75;3.00
69120;PMS5003;56228;43.550;5.030;2022-11-15T09:31:48;4.00;4.00;3.00
69120;PMS5003;56228;43.550;5.030;2022-11-15T09:34:13;6.00;6.00;5.00
69120;PMS5003;56228;43.550;5.030;2022-11-15T09:36:39;6.00;6.00;5.00
69120;PMS5003;56228;43.550;5.030;2022-11-15T09:39:04;4.00;4.00;3.75
69120;PMS5003;56228;43.550;5.030;2022-11-15T09:47:02;5.80;5.80;4.60
69120;PMS5003;56228;43.550;5.030;2022-11-15T09:49:55;5.00;5.00;4.00
69120;PMS5003;56228;43.550;5.030;2022-11-15T09:52:24;5.80;5.80;5.60
69120;PMS5003;56228;43.550;5.030;2022-11-15T09:54:51;4.25;4.25;4.00
69120;PMS5003;56228;43.550;5.030;2022-11-15T09:57:38;5.60;5.60;5.00
69120;PMS5003;56228;43.550;5.030;2022-11-15T10:05:25;4.00;3.60;2.40
69120;PMS5003;56228;43.550;5.030;2022-11-15T10:10:48;6.40;6.40;5.80
69120;PMS5003;56228;43.550;5.030;2022-11-15T10:13:22;5.80;5.80;4.60
69120;PMS5003;56228;43.550;5.030;2022-11-15T10:15:59;6.60;6.60;5.80
69120;PMS5003;56228;43.550;5.030;2022-11-15T10:24:26;6.00;6.00;5.80
69120;PMS5003;56228;43.550;5.030;2022-11-15T10:26:54;7.40;7.40;6.00
69120;PMS5003;56228;43.550;5.030;2022-11-15T10:29:21;5.00;5.00;4.50
69120;PMS5003;56228;43.550;5.030;2022-11-15T10:31:47;6.00;6.00;5.00
69120;PMS5003;56228;43.550;5.030;2022-11-15T10:34:18;8.25;8.25;6.50
69120;PMS5003;56228;43.550;5.030;2022-11-15T10:36:46;6.00;6.00;5.00
69120;PMS5003;56228;43.550;5.030;2022-11-15T10:39:25;5.20;5.20;4.40
69120;PMS5003;56228;43.550;5.030;2022-11-15T10:41:51;4.75;4.75;3.25
69120;PMS5003;56228;43.550;5.030;2022-11-15T10:46:43;6.40;6.40;5.00
69120;PMS5003;56228;43.550;5.030;2022-11-15T10:49:17;4.00;4.00;3.40
69120;PMS5003;56228;43.550;5.030;2022-11-15T10:56:55;5.00;5.00;3.20
69120;PMS5003;56228;43.550;5.030;2022-11-15T10:59:24;6.20;6.20;5.20
69120;PMS5003;56228;43.550;5.030;2022-11-15T11:01:53;5.00;5.00;4.80
69120;PMS5003;56228;43.550;5.030;2022-11-15T11:04:19;5.00;5.00;5.00
69120;PMS5003;56228;43.550;5.030;2022-11-15T11:06:52;3.50;3.50;2.00
69120;PMS5003;56228;43.550;5.030;2022-11-15T11:09:32;7.40;6.40;5.40
69120;PMS5003;56228;43.550;5.030;2022-11-15T11:12:00;5.40;5.40;5.00
69120;PMS5003;56228;43.550;5.030;2022-11-15T11:14:28;4.20;4.20;4.00
69120;PMS5003;56228;43.550;5.030;2022-11-15T11:17:22;3.20;3.20;3.20
69120;PMS5003;56228;43.550;5.030;2022-11-15T11:34:12;3.80;3.80;3.00
69120;PMS5003;56228;43.550;5.030;2022-11-15T11:44:45;6.00;6.00;4.00
69120;PMS5003;56228;43.550;5.030;2022-11-15T11:47:29;5.20;5.20;4.20
69120;PMS5003;56228;43.550;5.030;2022-11-15T11:50:00;1.40;1.40;1.00
69120;PMS5003;56228;43.550;5.030;2022-11-15T11:52:48;6.40;6.40;6.00
69120;PMS5003;56228;43.550;5.030;2022-11-15T11:55:37;5.20;5.20;3.60
69120;PMS5003;56228;43.550;5.030;2022-11-15T11:58:13;4.40;4.40;3.40
69120;PMS5003;56228;43.550;5.030;2022-11-15T12:00:49;5.80;5.80;4.00
69120;PMS5003;56228;43.550;5.030;2022-11-15T12:06:02;3.40;3.40;3.00
69120;PMS5003;56228;43.550;5.030;2022-11-15T12:08:45;5.20;5.20;4.80
69120;PMS5003;56228;43.550;5.030;2022-11-15T12:11:20;4.00;4.00;3.20
69120;PMS5003;56228;43.550;5.030;2022-11-15T12:13:53;6.00;6.00;5.40
69120;PMS5003;56228;43.550;5.030;2022-11-15T12:16:28;6.40;6.40;5.00
69120;PMS5003;56228;43.550;5.030;2022-11-15T12:18:58;2.00;2.00;2.00
69120;PMS5003;56228;43.550;5.030;2022-11-15T12:26:52;6.00;6.00;5.00
69120;PMS5003;56228;43.550;5.030;2022-11-15T12:29:35;6.40;6.40;5.00
69120;PMS5003;56228;43.550;5.030;2022-11-15T12:32:11;5.00;5.00;4.60
69120;PMS5003;56228;43.550;5.030;2022-11-15T12:34:53;5.00;5.00;4.20
69120;PMS5003;56228;43.550;5.030;2022-11-15T12:40:24;6.20;6.20;4.40
69120;PMS5003;56228;43.550;5.030;2022-11-15T12:42:58;6.60;6.60;5.80
69120;PMS5003;56228;43.550;5.030;2022-11-15T12:45:37;4.60;4.60;4.40
69120;PMS5003;56228;43.550;5.030;2022-11-15T12:58:45;7.20;7.20;6.40
69120;PMS5003;56228;43.550;5.030;2022-11-15T13:01:53;8.00;8.00;7.00
69120;PMS5003;56228;43.550;5.030;2022-11-15T13:06:42;5.00;5.00;4.75
69120;PMS5003;56228;43.550;5.030;2022-11-15T13:12:07;5.00;5.00;4.00
69120;PMS5003;56228;43.550;5.030;2022-11-15T13:14:56;3.60;3.60;3.20
69120;PMS5003;56228;43.550;5.030;2022-11-15T13:17:27;5.60;5.60;4.80
69120;PMS5003;56228;43.550;5.030;2022-11-15T13:22:24;5.80;5.80;5.60
69120;PMS5003;56228;43.550;5.030;2022-11-15T13:25:52;4.60;4.60;4.20
69120;PMS5003;56228;43.550;5.030;2022-11-15T13:27:57;5.40;5.40;5.20
69120;PMS5003;56228;43.550;5.030;2022-11-15T13:30:24;7.00;7.00;6.00
69120;PMS5003;56228;43.550;5.030;2022-11-15T13:32:52;3.80;3.80;3.20
69120;PMS5003;56228;43.550;5.030;2022-11-15T13:35:19;5.00;4.80;4.40
69120;PMS5003;56228;43.550;5.030;2022-11-15T13:37:49;7.00;7.00;6.00
69120;PMS5003;56228;43.550;5.030;2022-11-15T13:40:20;3.00;3.00;2.00
69120;PMS5003;56228;43.550;5.030;2022-11-15T13:42:52;6.60;6.60;5.60
69120;PMS5003;56228;43.550;5.030;2022-11-15T13:45:19;4.75;4.75;4.25
69120;PMS5003;56228;43.550;5.030;2022-11-15T13:47:50;5.40;5.40;4.60
69120;PMS5003;56228;43.550;5.030;2022-11-15T13:50:17;4.00;4.00;3.00
69120;PMS5003;56228;43.550;5.030;2022-11-15T13:52:45;5.60;5.20;4.00
69120;PMS5003;56228;43.550;5.030;2022-11-15T13:55:15;4.00;4.00;4.00
69120;PMS5003;56228;43.550;5.030;2022-11-15T13:57:44;6.00;6.00;4.40
69120;PMS5003;56228;43.550;5.030;2022-11-15T14:03:06;6.00;6.00;5.60
69120;PMS5003;56228;43.550;5.030;2022-11-15T14:05:32;7.20;7.20;6.20
69120;PMS5003;56228;43.550;5.030;2022-11-15T14:07:59;4.25;4.25;3.50
69120;PMS5003;56228;43.550;5.030;2022-11-15T14:10:29;6.80;6.80;5.60
69120;PMS5003;56228;43.550;5.030;2022-11-15T14:13:01;1.20;1.20;1.00
69120;PMS5003;56228;43.550;5.030;2022-11-15T14:18:00;4.00;4.00;3.60
69120;PMS5003;56228;43.550;5.030;2022-11-15T14:20:34;5.40;5.40;4.60
69120;PMS5003;56228;43.550;5.030;2022-11-15T14:23:03;4.80;4.80;4.00
69120;PMS5003;56228;43.550;5.030;2022-11-15T14:25:31;3.60;3.60;2.80
69120;PMS5003;56228;43.550;5.030;2022-11-15T14:28:27;6.00;6.00;4.80
69120;PMS5003;56228;43.550;5.030;2022-11-15T14:30:56;7.00;7.00;6.00
69120;PMS5003;56228;43.550;5.030;2022-11-15T14:35:53;4.40;4.40;4.00
69120;PMS5003;56228;43.550;5.030;2022-11-15T14:38:21;5.20;5.20;4.00
69120;PMS5003;56228;43.550;5.030;2022-11-15T14:40:46;5.00;5.00;3.25
69120;PMS5003;56228;43.550;5.030;2022-11-15T14:43:13;5.00;5.00;4.20
69120;PMS5003;56228;43.550;5.030;2022-11-15T14:45:39;5.00;5.00;4.40
69120;PMS5003;56228;43.550;5.030;2022-11-15T14:48:06;4.80;4.80;4.00
69120;PMS5003;56228;43.550;5.030;2022-11-15T14:50:32;5.00;5.00;4.20
69120;PMS5003;56228;43.550;5.030;2022-11-15T14:52:58;6.20;5.40;5.40
69120;PMS5003;56228;43.550;5.030;2022-11-15T14:55:28;5.00;5.00;4.00
69120;PMS5003;56228;43.550;5.030;2022-11-15T14:58:04;6.40;5.40;5.00
69120;PMS5003;56228;43.550;5.030;2022-11-15T15:00:33;4.00;4.00;3.00
69120;PMS5003;56228;43.550;5.030;2022-11-15T15:02:59;5.00;5.00;4.40
69120;PMS5003;56228;43.550;5.030;2022-11-15T15:05:33;4.20;4.20;4.00
69120;PMS5003;56228;43.550;5.030;2022-11-15T15:08:00;4.80;4.60;4.00
69120;PMS5003;56228;43.550;5.030;2022-11-15T15:10:29;5.60;5.60;4.60
69120;PMS5003;56228;43.550;5.030;2022-11-15T15:12:57;4.00;4.00;3.60
69120;PMS5003;56228;43.550;5.030;2022-11-15T15:15:27;5.00;5.00;4.00
69120;PMS5003;56228;43.550;5.030;2022-11-15T15:17:59;5.60;5.60;4.00
69120;PMS5003;56228;43.550;5.030;2022-11-15T15:20:25;4.00;4.00;3.75
69120;PMS5003;56228;43.550;5.030;2022-11-15T15:22:50;4.50;4.50;4.25
69120;PMS5003;56228;43.550;5.030;2022-11-15T15:25:29;5.75;5.75;4.75
69120;PMS5003;56228;43.550;5.030;2022-11-15T15:27:58;3.20;3.20;2.20
69120;PMS5003;56228;43.550;5.030;2022-11-15T15:30:25;5.40;5.40;4.60
69120;PMS5003;56228;43.550;5.030;2022-11-15T15:32:52;5.20;5.20;4.80
69120;PMS5003;56228;43.550;5.030;2022-11-15T15:35:19;5.80;5.80;5.60
69120;PMS5003;56228;43.550;5.030;2022-11-15T15:37:46;3.25;3.25;2.25
69120;PMS5003;56228;43.550;5.030;2022-11-15T15:42:43;4.20;4.20;3.80
69120;PMS5003;56228;43.550;5.030;2022-11-15T15:45:09;5.00;5.00;4.67
69120;PMS5003;56228;43.550;5.030;2022-11-15T15:47:35;3.50;3.50;3.00
69120;PMS5003;56228;43.550;5.030;2022-11-15T15:50:01;4.00;4.00;4.00
69120;PMS5003;56228;43.550;5.030;2022-11-15T15:52:26;5.00;5.00;4.00
69120;PMS5003;56228;43.550;5.030;2022-11-15T15:54:52;6.00;6.00;5.00
69120;PMS5003;56228;43.550;5.030;2022-11-15T15:57:17;6.50;5.25;5.00
69120;PMS5003;56228;43.550;5.030;2022-11-15T15:59:43;4.25;4.25;3.75
69120;PMS5003;56228;43.550;5.030;2022-11-15T16:02:12;7.75;6.50;5.50
69120;PMS5003;56228;43.550;5.030;2022-11-15T16:04:38;2.00;2.00;2.00
69120;PMS5003;56228;43.550;5.030;2022-11-15T16:07:04;3.25;3.25;3.25
69120;PMS5003;56228;43.550;5.030;2022-11-15T16:09:30;6.00;5.00;4.00
69120;PMS5003;56228;43.550;5.030;2022-11-15T16:12:14;4.60;4.60;3.80
69120;PMS5003;56228;43.550;5.030;2022-11-15T16:14:41;5.20;5.20;5.00
69120;PMS5003;56228;43.550;5.030;2022-11-15T16:17:09;6.00;6.00;5.00
69120;PMS5003;56228;43.550;5.030;2022-11-15T16:19:42;5.80;5.80;5.00
69120;PMS5003;56228;43.550;5.030;2022-11-15T16:22:07;5.50;5.50;5.00
69120;PMS5003;56228;43.550;5.030;2022-11-15T16:24:33;5.00;5.00;3.75
69120;PMS5003;56228;43.550;5.030;2022-11-15T16:26:58;6.00;6.00;5.00
69120;PMS5003;56228;43.550;5.030;2022-11-15T16:29:27;4.00;4.00;4.00
69120;PMS5003;56228;43.550;5.030;2022-11-15T16:31:53;4.20;4.20;3.80
69120;PMS5003;56228;43.550;5.030;2022-11-15T16:34:19;5.00;4.25;4.00
69120;PMS5003;56228;43.550;5.030;2022-11-15T16:36:44;3.75;3.75;3.00
69120;PMS5003;56228;43.550;5.030;2022-11-15T16:39:12;5.50;5.50;4.50
69120;PMS5003;56228;43.550;5.030;2022-11-15T16:41:40;5.80;4.20;4.00
69120;PMS5003;56228;43.550;5.030;2022-11-15T16:44:08;5.60;5.00;4.20
69120;PMS5003;56228;43.550;5.030;2022-11-15T16:46:33;3.75;3.75;3.00
69120;PMS5003;56228;43.550;5.030;2022-11-15T16:48:59;3.75;3.75;3.00
69120;PMS5003;56228;43.550;5.030;2022-11-15T16:51:25;3.75;3.75;3.50
69120;PMS5003;56228;43.550;5.030;2022-11-15T16:53:50;4.25;4.25;4.00
69120;PMS5003;56228;43.550;5.030;2022-11-15T16:59:00;4.20;4.20;4.00
69120;PMS5003;56228;43.550;5.030;2022-11-15T17:01:35;4.80;4.00;3.40
69120;PMS5003;56228;43.550;5.030;2022-11-15T17:04:10;5.00;5.00;4.20
69120;PMS5003;56228;43.550;5.030;2022-11-15T17:06:37;4.80;4.80;4.00
69120;PMS5003;56228;43.550;5.030;2022-11-15T17:09:05;3.80;3.80;3.80
69120;PMS5003;56228;43.550;5.030;2022-11-15T17:11:31;5.00;5.00;4.20
69120;PMS5003;56228;43.550;5.030;2022-11-15T17:13:57;6.00;6.00;5.00
69120;PMS5003;56228;43.550;5.030;2022-11-15T17:16:23;5.40;5.40;4.80
69120;PMS5003;56228;43.550;5.030;2022-11-15T17:18:50;5.00;5.00;4.80
69120;PMS5003;56228;43.550;5.030;2022-11-15T17:21:17;5.00;5.00;5.00
69120;PMS5003;56228;43.550;5.030;2022-11-15T17:23:46;4.00;4.00;4.00
69120;PMS5003;56228;43.550;5.030;2022-11-15T17:26:13;5.00;5.00;4.80
69120;PMS5003;56228;43.550;5.030;2022-11-15T17:28:40;7.40;5.60;5.00
69120;PMS5003;56228;43.550;5.030;2022-11-15T17:31:09;6.60;6.60;5.00
69120;PMS5003;56228;43.550;5.030;2022-11-15T17:33:36;5.60;5.00;3.00
69120;PMS5003;56228;43.550;5.030;2022-11-15T17:36:06;8.00;7.20;6.00
69120;PMS5003;56228;43.550;5.030;2022-11-15T17:38:34;5.60;5.60;5.00
69120;PMS5003;56228;43.550;5.030;2022-11-15T17:41:01;3.25;3.25;3.00
69120;PMS5003;56228;43.550;5.030;2022-11-15T17:43:31;5.00;5.00;4.00
69120;PMS5003;56228;43.550;5.030;2022-11-15T17:45:58;6.60;6.20;4.80
69120;PMS5003;56228;43.550;5.030;2022-11-15T17:48:28;5.40;5.00;4.60
69120;PMS5003;56228;43.550;5.030;2022-11-15T17:50:55;5.00;5.00;5.00
69120;PMS5003;56228;43.550;5.030;2022-11-15T17:53:22;4.40;4.40;4.00
69120;PMS5003;56228;43.550;5.030;2022-11-15T17:55:48;4.40;4.40;3.80
69120;PMS5003;56228;43.550;5.030;2022-11-15T17:58:14;3.25;3.25;2.50
69120;PMS5003;56228;43.550;5.030;2022-11-15T18:00:42;5.00;5.00;4.40
69120;PMS5003;56228;43.550;5.030;2022-11-15T18:03:09;4.40;4.40;4.00
69120;PMS5003;56228;43.550;5.030;2022-11-15T18:05:35;5.25;5.25;5.00
69120;PMS5003;56228;43.550;5.030;2022-11-15T18:08:00;9.00;9.00;7.75
69120;PMS5003;56228;43.550;5.030;2022-11-15T18:10:26;6.00;6.00;5.00
69120;PMS5003;56228;43.550;5.030;2022-11-15T18:12:51;7.00;7.00;6.25
69120;PMS5003;56228;43.550;5.030;2022-11-15T18:15:17;6.00;6.00;4.67
69120;PMS5003;56228;43.550;5.030;2022-11-15T18:17:43;6.00;6.00;5.00
69120;PMS5003;56228;43.550;5.030;2022-11-15T18:20:08;4.25;4.25;4.00
69120;PMS5003;56228;43.550;5.030;2022-11-15T18:22:34;3.00;3.00;1.00
69120;PMS5003;56228;43.550;5.030;2022-11-15T18:24:59;7.00;7.00;6.50
69120;PMS5003;56228;43.550;5.030;2022-11-15T20:18:00;6.20;5.20;5.00
69120;PMS5003;56228;43.550;5.030;2022-11-15T20:20:26;7.00;7.00;6.00
69120;PMS5003;56228;43.550;5.030;2022-11-15T20:22:52;6.00;6.00;5.00
69120;PMS5003;56228;43.550;5.030;2022-11-15T20:25:17;3.33;3.00;2.00
69120;PMS5003;56228;43.550;5.030;2022-11-15T20:27:42;4.33;4.33;3.33
69120;PMS5003;56228;43.550;5.030;2022-11-15T20:30:08;5.00;5.00;4.67
69120;PMS5003;56228;43.550;5.030;2022-11-15T20:32:34;6.40;6.40;5.20
69120;PMS5003;56228;43.550;5.030;2022-11-15T20:35:00;5.00;5.00;4.75
69120;PMS5003;56228;43.550;5.030;2022-11-15T20:37:25;7.50;7.50;6.00
69120;PMS5003;56228;43.550;5.030;2022-11-15T20:39:51;3.25;3.25;2.25
69120;PMS5003;56228;43.550;5.030;2022-11-15T20:42:16;7.00;7.00;5.75
69120;PMS5003;56228;43.550;5.030;2022-11-15T20:44:41;7.00;7.00;6.25
69120;PMS5003;56228;43.550;5.030;2022-11-15T20:47:07;4.00;4.00;2.50
69120;PMS5003;56228;43.550;5.030;2022-11-15T20:49:32;8.00;8.00;6.25
69120;PMS5003;56228;43.550;5.030;2022-11-15T20:51:58;1.00;1.00;1.00
69120;PMS5003;56228;43.550;5.030;2022-11-15T20:54:23;5.00;5.00;4.00
69120;PMS5003;56228;43.550;5.030;2022-11-15T20:56:49;5.75;5.75;5.00
69120;PMS5003;56228;43.550;5.030;2022-11-15T20:59:14;7.00;7.00;6.00
69120;PMS5003;56228;43.550;5.030;2022-11-15T21:01:40;6.00;5.00;5.00
69120;PMS5003;56228;43.550;5.030;2022-11-15T21:04:05;6.50;6.50;5.50
69120;PMS5003;56228;43.550;5.030;2022-11-15T21:06:31;6.50;6.50;5.50
69120;PMS5003;56228;43.550;5.030;2022-11-15T21:08:56;8.00;8.00;7.00
69120;PMS5003;56228;43.550;5.030;2022-11-15T21:11:57;9.00;9.00;7.00
69120;PMS5003;56228;43.550;5.030;2022-11-15T21:14:41;9.80;9.80;7.60
69120;PMS5003;56228;43.550;5.030;2022-11-15T21:17:08;8.00;8.00;7.80
69120;PMS5003;56228;43.550;5.030;2022-11-15T21:19:34;12.75;12.75;8.75
69120;PMS5003;56228;43.550;5.030;2022-11-15T21:21:59;25.00;21.00;13.50
69120;PMS5003;56228;43.550;5.030;2022-11-15T21:24:25;24.50;23.75;16.50
69120;PMS5003;56228;43.550;5.030;2022-11-15T21:26:51;3.75;3.75;3.00
69120;PMS5003;56228;43.550;5.030;2022-11-15T21:29:20;30.40;29.80;20.00
69120;PMS5003;56228;43.550;5.030;2022-11-15T21:31:46;36.20;32.40;23.00
69120;PMS5003;56228;43.550;5.030;2022-11-15T21:34:13;50.80;39.60;26.60
69120;PMS5003;56228;43.550;5.030;2022-11-15T21:36:39;56.20;45.40;28.00
69120;PMS5003;56228;43.550;5.030;2022-11-15T21:39:04;49.75;40.25;25.75
69120;PMS5003;56228;43.550;5.030;2022-11-15T21:41:30;57.00;45.50;27.00
69120;PMS5003;56228;43.550;5.030;2022-11-15T21:43:57;52.80;42.60;26.00
69120;PMS5003;56228;43.550;5.030;2022-11-15T21:46:23;50.60;42.60;26.00
69120;PMS5003;56228;43.550;5.030;2022-11-15T21:48:48;18.00;17.00;9.00
69120;PMS5003;56228;43.550;5.030;2022-11-15T21:51:14;2.75;2.75;2.50
69120;PMS5003;56228;43.550;5.030;2022-11-15T21:53:39;20.75;18.50;12.25
69120;PMS5003;56228;43.550;5.030;2022-11-15T21:56:05;30.00;29.75;20.00
69120;PMS5003;56228;43.550;5.030;2022-11-15T21:58:31;26.20;25.00;14.80
69120;PMS5003;56228;43.550;5.030;2022-11-15T22:00:57;28.00;26.25;15.00
